METAR Data
IDs: Format: Raw Decoded Include TAF

Data at: 1550 UTC 18 Aug 2019

PFKT 181456Z AUTO 04005KT 10SM CLR 11/03 A3053 RMK AO2 SLP338 T01060033 56014
PFKT 181356Z AUTO 00000KT 10SM CLR 09/03 A3054 RMK AO2 SLP343 T00940033
PFKT 181256Z AUTO 04003KT 10SM CLR 11/03 A3056 RMK AO2 SLP347 T01110028
PFKT 181156Z AUTO 36005KT 10SM CLR 11/07 A3057 RMK AO2 SLP352 T01110072 10144 20106 58006
PFKT 181056Z AUTO 05005KT 10SM CLR 12/05 A3058 RMK AO2 SLP356 T01220050
PFKT 180956Z AUTO VRB04KT 10SM CLR 13/05 A3059 RMK AO2 SLP358 T01330050
PFKT 180856Z AUTO 02013KT 10SM CLR 13/06 A3059 RMK AO2 SLP358 T01280061 401720072 56005
PFKT 180756Z AUTO 03013KT 10SM CLR 13/07 A3059 RMK AO2 SLP358 T01280072
PFKT 180656Z AUTO 02014G18KT 10SM CLR 13/08 A3059 RMK AO2 SLP359 T01330078
PFKT 180556Z AUTO 03007KT 10SM CLR 14/07 A3060 RMK AO2 SLP362 T01440067 10172 20139 58010
PFKT 180456Z AUTO 02006KT 10SM CLR 16/07 A3061 RMK AO2 SLP367 T01560067
PFKT 180356Z AUTO 02007KT 10SM CLR 16/06 A3063 RMK AO2 SLP370 T01610056
PFKT 180256Z AUTO 03009KT 10SM CLR 17/06 A3063 RMK AO2 SLP373 T01670056 57007
PFKT 180156Z AUTO 01007KT 10SM CLR 17/07 A3064 RMK AO2 SLP375 T01720067
PFKT 180056Z AUTO 01007KT 10SM CLR 16/08 A3065 RMK AO2 SLP377 T01560078
PFKT 172356Z AUTO 25006KT 10SM CLR 14/09 A3065 RMK AO2 SLP380 T01390094 10144 20094 58011
PFKT 172256Z AUTO 19006KT 10SM CLR 14/09 A3067 RMK AO2 SLP385 T01390094
PFKT 172156Z AUTO 18004KT 10SM CLR 12/09 A3068 RMK AO2 SLP388 T01220089
PFKT 172056Z AUTO 17007KT 10SM CLR 12/09 A3069 RMK AO2 SLP391 T01170094 50003
PFKT 171956Z AUTO 09003KT 10SM CLR 12/08 A3069 RMK AO2 SLP392 T01170083
PFKT 171856Z AUTO VRB03KT 10SM CLR 11/08 A3069 RMK AO2 SLP391 T01110078
PFKT 171756Z AUTO 10006KT 10SM CLR 09/07 A3068 RMK AO2 SLP388 T00940072 10100 20072 51007
PFKT 171656Z AUTO 02007KT 10SM CLR 09/07 A3067 RMK AO2 SLP387 T00890067
PFKT 171556Z AUTO 03010KT 10SM CLR 08/07 A3066 RMK AO2 SLP383 T00830067
PFKT 171456Z AUTO 03012KT 10SM CLR 08/07 A3065 RMK AO2 SLP380 T00830067 50004
PFKT 171356Z AUTO 00000KT 10SM CLR 09/07 A3067 RMK AO2 SLP386 T00890067
PFKT 171340Z AUTO VRB03KT 10SM SCT009 08/07 A3067 RMK AO2
PFKT 171323Z AUTO 19004KT 10SM BKN009 09/07 A3066 RMK AO2
PFKT 171314Z AUTO 16006KT 10SM SCT009 08/07 A3066 RMK AO2
PFKT 171256Z AUTO 02016KT 10SM CLR 08/07 A3064 RMK AO2 SLP376 T00830067
PFKT 171156Z AUTO 04014KT 10SM CLR 08/07 A3064 RMK AO2 SLP376 T00830072 10106 20078 50002
PFKT 171056Z AUTO 04008KT 10SM CLR 09/07 A3065 RMK AO2 SLP378 T00890072
PFKT 170956Z AUTO VRB04KT 10SM CLR 09/07 A3064 RMK AO2 SLP377 T00890067
PFKT 170856Z AUTO 35006KT 10SM SCT019 09/07 A3064 RMK AO2 SLP374 T00940067 401220044 51018
PFKT 170845Z AUTO 02007KT 10SM SCT019 09/07 A3063 RMK AO2
PFKT 170756Z AUTO 05007KT 10SM OVC017 09/07 A3062 RMK AO2 SLP369 T00940067
PFKT 170656Z AUTO 06007KT 10SM OVC019 09/06 A3061 RMK AO2 SLP364 T00940061
PFKT 170556Z AUTO 01010KT 10SM OVC021 11/07 A3058 RMK AO2 SLP356 T01060067 10122 20094 53015
PFKT 170456Z AUTO 02010KT 10SM BKN025 12/07 A3055 RMK AO2 SLP346 T01170067
PFKT 170453Z AUTO 01008KT 10SM BKN025 12/07 A3055 RMK AO2
PFKT 170445Z AUTO 03010KT 10SM SCT025 11/06 A3055 RMK AO2
PFKT 170436Z AUTO 36011KT 10SM BKN025 12/07 A3055 RMK AO2
PFKT 170356Z AUTO 01010KT 10SM FEW025 12/06 A3054 RMK AO2 SLP341 T01220061
PFKT 170353Z AUTO 02013KT 10SM SCT025 12/06 A3054 RMK AO2